Terminal Aerodrome Forecast
Issued by NWS

Home | Current Version | Previous Version | Text Only | Print | Product List | Glossary On
Versions: 1 2 3 4 5 6 7 8 9 10 11 12 13 14 15
000
FTUS41 KBOX 290535 AAA
TAFHYA
TAF AMD
KHYA 290535Z 2906/3006 23008KT 5SM BR SCT003 BKN200
     FM291200 22010KT P6SM VCSH BKN008
     FM291600 24013G20KT P6SM SCT050
     FM300000 26009KT P6SM SCT120
     FM300400 30010KT P6SM SCT090=

USA.gov is the U.S. government's official web portal to all federal, state and local government web resources and services.